createdAt,value
2022-08-21T00:01:36.903Z,2.80
2022-08-21T00:04:08.163Z,2.40
2022-08-21T00:06:35.012Z,2.60
2022-08-21T00:09:06.514Z,2.75
2022-08-21T00:11:35.883Z,2.13
2022-08-21T00:14:03.446Z,2.72
2022-08-21T00:16:30.383Z,2.40
2022-08-21T00:18:57.121Z,2.28
2022-08-21T00:21:23.901Z,2.20
2022-08-21T00:23:50.885Z,2.33
2022-08-21T00:26:17.579Z,2.45
2022-08-21T00:28:46.547Z,2.40
2022-08-21T00:31:13.730Z,2.15
2022-08-21T00:33:40.440Z,2.35
2022-08-21T00:36:07.466Z,2.80
2022-08-21T00:38:35.194Z,2.65
2022-08-21T00:41:20.955Z,2.30
2022-08-21T00:43:52.225Z,2.28
2022-08-21T00:46:18.957Z,2.38
2022-08-21T00:48:45.660Z,2.30
2022-08-21T00:51:26.266Z,2.30
2022-08-21T00:53:57.967Z,3.05
2022-08-21T00:56:26.648Z,2.70
2022-08-21T00:58:56.722Z,2.75
2022-08-21T01:01:23.747Z,3.22
2022-08-21T01:03:51.483Z,2.75
2022-08-21T01:06:18.604Z,4.00
2022-08-21T01:08:46.814Z,2.95
2022-08-21T01:11:15.721Z,3.58
2022-08-21T01:13:46.775Z,3.00
2022-08-21T01:16:17.821Z,2.60
2022-08-21T01:18:45.853Z,2.90
2022-08-21T01:21:28.280Z,2.88
2022-08-21T01:23:56.914Z,3.25
2022-08-21T01:26:34.285Z,3.45
2022-08-21T01:29:05.730Z,3.58
2022-08-21T01:31:33.827Z,3.28
2022-08-21T01:34:00.917Z,4.07
2022-08-21T01:36:27.662Z,3.30
2022-08-21T01:38:54.445Z,3.00
2022-08-21T01:41:21.304Z,3.80
2022-08-21T01:43:48.168Z,3.55
2022-08-21T01:46:16.052Z,3.33
2022-08-21T01:48:43.944Z,3.42
2022-08-21T01:51:11.304Z,3.28
2022-08-21T01:53:38.109Z,3.03
2022-08-21T01:56:12.127Z,3.00
2022-08-21T01:58:43.679Z,3.42
2022-08-21T02:01:11.063Z,2.92
2022-08-21T02:03:38.765Z,3.10
2022-08-21T02:06:07.748Z,3.00
2022-08-21T02:08:35.212Z,2.67
2022-08-21T02:11:02.160Z,3.10
2022-08-21T02:13:28.872Z,2.88
2022-08-21T02:15:55.528Z,2.97
2022-08-21T02:18:22.239Z,2.95
2022-08-21T02:20:55.838Z,3.13
2022-08-21T02:23:26.804Z,3.13
2022-08-21T02:25:58.855Z,3.00
2022-08-21T02:28:26.092Z,3.13
2022-08-21T02:30:56.231Z,2.70
2022-08-21T02:33:24.070Z,3.05
2022-08-21T02:35:51.466Z,2.60
2022-08-21T02:38:21.400Z,2.90
2022-08-21T02:40:51.109Z,2.75
2022-08-21T02:43:19.606Z,3.15
2022-08-21T02:45:47.273Z,2.88
2022-08-21T02:48:18.307Z,2.63
2022-08-21T02:50:48.617Z,2.88
2022-08-21T02:53:17.549Z,3.72
2022-08-21T02:55:50.043Z,2.80
2022-08-21T02:58:20.198Z,2.75
2022-08-21T03:00:47.052Z,3.17
2022-08-21T03:03:15.401Z,2.58
2022-08-21T03:05:43.231Z,2.65
2022-08-21T03:08:11.824Z,3.00
2022-08-21T03:10:43.937Z,2.80
2022-08-21T03:13:11.821Z,2.63
2022-08-21T03:15:39.227Z,2.60
2022-08-21T03:18:06.753Z,2.33
2022-08-21T03:20:34.291Z,2.80
2022-08-21T03:23:02.433Z,2.00
2022-08-21T03:25:40.425Z,2.78
2022-08-21T03:28:13.380Z,2.53
2022-08-21T03:30:46.043Z,3.00
2022-08-21T03:33:15.178Z,3.08
2022-08-21T03:35:44.266Z,3.00
2022-08-21T03:38:11.304Z,2.95
2022-08-21T03:40:37.987Z,2.92
2022-08-21T03:43:04.674Z,3.22
2022-08-21T03:45:33.271Z,3.10
2022-08-21T03:48:04.330Z,3.10
2022-08-21T03:50:34.709Z,2.92
2022-08-21T03:53:01.950Z,2.78
2022-08-21T03:55:29.503Z,2.92
2022-08-21T03:57:56.758Z,2.63
2022-08-21T04:00:24.235Z,2.45
2022-08-21T04:02:51.492Z,2.85
2022-08-21T04:05:31.025Z,2.42
2022-08-21T04:08:03.843Z,2.15
2022-08-21T04:10:35.410Z,2.50
2022-08-21T04:13:02.419Z,2.35
2022-08-21T04:15:29.314Z,2.47
2022-08-21T04:17:56.115Z,2.80
2022-08-21T04:20:23.503Z,2.78
2022-08-21T04:22:51.535Z,2.83
2022-08-21T04:25:19.946Z,2.67
2022-08-21T04:27:46.948Z,3.05
2022-08-21T04:30:14.978Z,2.45
2022-08-21T04:32:49.880Z,2.60
2022-08-21T04:35:20.521Z,2.22
2022-08-21T04:37:47.529Z,2.42
2022-08-21T04:40:16.213Z,3.03
2022-08-21T04:43:09.203Z,2.55
2022-08-21T04:45:39.026Z,2.92
2022-08-21T04:48:13.322Z,2.92
2022-08-21T04:51:03.525Z,2.53
2022-08-21T04:53:46.446Z,3.20
2022-08-21T04:56:17.893Z,3.47
2022-08-21T04:58:44.582Z,2.67
2022-08-21T05:01:15.472Z,2.85
2022-08-21T05:03:43.054Z,2.85
2022-08-21T05:06:13.844Z,3.10
2022-08-21T05:08:41.868Z,2.70
2022-08-21T05:11:08.654Z,2.92
2022-08-21T05:13:36.193Z,3.45
2022-08-21T05:16:03.325Z,3.20
2022-08-21T05:18:30.205Z,3.30
2022-08-21T05:20:57.890Z,2.85
2022-08-21T05:23:25.781Z,3.20
2022-08-21T05:25:54.066Z,3.40
2022-08-21T05:28:20.829Z,3.55
2022-08-21T05:30:48.096Z,3.80
2022-08-21T05:33:15.156Z,3.00
2022-08-21T05:35:42.220Z,3.25
2022-08-21T05:38:11.098Z,3.30
2022-08-21T05:40:45.342Z,3.35
2022-08-21T05:43:12.045Z,3.20
2022-08-21T05:45:42.229Z,3.65
2022-08-21T05:48:16.542Z,3.28
2022-08-21T05:50:44.415Z,3.70
2022-08-21T05:53:12.076Z,3.38
2022-08-21T05:55:44.438Z,3.50
2022-08-21T05:58:13.181Z,3.63
2022-08-21T06:00:40.303Z,3.53
2022-08-21T06:03:13.104Z,2.75
2022-08-21T06:05:39.843Z,3.78
2022-08-21T06:08:06.556Z,2.78
2022-08-21T06:10:33.264Z,4.18
2022-08-21T06:13:00.137Z,3.40
2022-08-21T06:15:27.222Z,3.47
2022-08-21T06:17:54.872Z,3.30
2022-08-21T06:20:22.335Z,3.53
2022-08-21T06:22:49.001Z,3.30
2022-08-21T06:25:15.741Z,2.83
2022-08-21T06:27:42.393Z,2.95
2022-08-21T06:30:10.564Z,3.35
2022-08-21T06:32:37.590Z,3.30
2022-08-21T06:35:07.019Z,3.55
2022-08-21T06:37:34.371Z,3.33
2022-08-21T06:40:01.371Z,3.15
2022-08-21T06:42:30.869Z,3.80
2022-08-21T06:44:58.701Z,3.53
2022-08-21T06:47:25.401Z,3.42
2022-08-21T06:49:52.120Z,3.45
2022-08-21T06:52:18.862Z,3.63
2022-08-21T06:54:45.602Z,2.95
2022-08-21T06:57:12.279Z,3.30
2022-08-21T06:59:38.935Z,3.25
2022-08-21T07:02:05.699Z,2.70
2022-08-21T07:04:32.670Z,3.55
2022-08-21T07:06:59.379Z,2.78
2022-08-21T07:09:26.107Z,2.83
2022-08-21T07:11:55.894Z,2.47
2022-08-21T07:14:23.009Z,2.17
2022-08-21T07:16:51.622Z,2.30
2022-08-21T07:19:19.150Z,1.55
2022-08-21T07:21:45.972Z,1.63
2022-08-21T07:24:12.882Z,1.92
2022-08-21T07:26:39.854Z,1.70
2022-08-21T07:29:06.502Z,1.75
2022-08-21T07:31:33.255Z,1.80
2022-08-21T07:33:59.968Z,2.08
2022-08-21T07:36:26.725Z,2.05
2022-08-21T07:38:53.411Z,2.30
2022-08-21T07:41:23.841Z,2.30
2022-08-21T07:43:52.808Z,2.17
2022-08-21T07:46:20.517Z,2.30
2022-08-21T07:48:47.459Z,2.10
2022-08-21T07:51:17.434Z,3.17
2022-08-21T07:53:50.882Z,3.03
2022-08-21T07:56:18.601Z,3.53
2022-08-21T07:58:45.683Z,3.05
2022-08-21T08:01:12.502Z,2.95
2022-08-21T08:03:39.918Z,3.17
2022-08-21T08:06:09.499Z,3.35
2022-08-21T08:08:36.175Z,3.20
2022-08-21T08:11:02.869Z,3.28
2022-08-21T08:13:29.534Z,4.20
2022-08-21T08:15:56.273Z,3.70
2022-08-21T08:18:23.011Z,4.53
2022-08-21T08:20:49.783Z,4.00
2022-08-21T08:23:16.634Z,4.10
2022-08-21T08:25:43.399Z,4.15
2022-08-21T08:28:16.542Z,3.90
2022-08-21T08:30:45.601Z,3.22
2022-08-21T08:33:12.329Z,4.47
2022-08-21T08:35:39.402Z,3.83
2022-08-21T08:38:06.695Z,3.53
2022-08-21T08:40:44.979Z,3.50
2022-08-21T08:43:14.516Z,4.60
2022-08-21T08:45:47.226Z,2.60
2022-08-21T08:48:20.585Z,3.10
2022-08-21T08:50:55.916Z,3.00
2022-08-21T08:53:29.288Z,2.35
2022-08-21T08:55:57.332Z,3.05
2022-08-21T08:58:28.029Z,3.00
2022-08-21T09:00:56.035Z,3.20
2022-08-21T09:03:25.859Z,2.05
2022-08-21T09:06:13.580Z,2.33
2022-08-21T09:09:12.427Z,1.73
2022-08-21T09:12:01.101Z,1.95
2022-08-21T09:14:55.289Z,2.05
2022-08-21T09:17:37.288Z,1.63
2022-08-21T09:20:23.318Z,1.50
2022-08-21T09:23:03.615Z,1.38
2022-08-21T09:25:41.539Z,1.90
2022-08-21T09:28:14.987Z,2.05
2022-08-21T09:30:42.182Z,1.98
2022-08-21T09:33:12.413Z,2.05
2022-08-21T09:35:53.423Z,2.05
2022-08-21T09:38:52.635Z,2.08
2022-08-21T09:41:30.414Z,1.98
2022-08-21T09:43:57.189Z,2.17
2022-08-21T09:46:26.609Z,1.77
2022-08-21T09:48:59.688Z,1.38
2022-08-21T09:51:31.560Z,1.65
2022-08-21T09:54:07.172Z,1.52
2022-08-21T09:56:55.440Z,1.80
2022-08-21T09:59:25.227Z,1.83
2022-08-21T10:01:53.028Z,1.27
2022-08-21T10:04:36.374Z,1.40
2022-08-21T10:07:15.112Z,1.45
2022-08-21T10:09:42.925Z,1.55
2022-08-21T10:12:20.229Z,1.38
2022-08-21T10:14:57.668Z,1.52
2022-08-21T10:17:44.371Z,1.27
2022-08-21T10:20:30.454Z,1.73
2022-08-21T10:23:27.750Z,1.13
2022-08-21T10:26:13.915Z,1.20
2022-08-21T10:29:04.470Z,0.98
2022-08-21T10:31:31.086Z,0.98
2022-08-21T10:34:03.874Z,1.33
2022-08-21T10:36:44.176Z,0.90
2022-08-21T10:39:36.592Z,1.30
2022-08-21T10:42:28.520Z,1.10
2022-08-21T10:45:20.309Z,0.95
2022-08-21T10:47:58.042Z,0.80
2022-08-21T10:50:49.088Z,1.00
2022-08-21T10:53:56.519Z,1.13
2022-08-21T10:56:25.688Z,0.95
2022-08-21T10:59:13.711Z,0.90
2022-08-21T11:01:55.633Z,1.38
2022-08-21T11:04:49.459Z,1.17
2022-08-21T11:07:22.802Z,1.02
2022-08-21T11:09:50.817Z,1.27
2022-08-21T11:12:28.810Z,0.98
2022-08-21T11:15:28.954Z,0.80
2022-08-21T11:18:23.936Z,1.10
2022-08-21T11:21:20.966Z,1.20
2022-08-21T11:24:25.874Z,1.10
2022-08-21T11:27:00.755Z,1.15
2022-08-21T11:29:35.537Z,0.75
2022-08-21T11:32:33.838Z,0.82
2022-08-21T11:35:25.354Z,1.13
2022-08-21T11:38:31.040Z,0.95
2022-08-21T11:41:13.102Z,1.33
2022-08-21T11:43:48.905Z,0.70
2022-08-21T11:46:26.997Z,1.20
2022-08-21T11:49:11.434Z,0.90
2022-08-21T11:51:43.730Z,0.80
2022-08-21T11:54:45.432Z,0.80
2022-08-21T11:57:45.759Z,0.80
2022-08-21T12:00:19.979Z,0.95
2022-08-21T12:02:52.190Z,0.95
2022-08-21T12:05:32.590Z,0.80
2022-08-21T12:08:11.535Z,0.82
2022-08-21T12:10:42.047Z,0.60
2022-08-21T12:13:40.323Z,0.80
2022-08-21T12:16:13.706Z,0.80
2022-08-21T12:18:41.451Z,0.55
2022-08-21T12:21:17.813Z,0.80
2022-08-21T12:24:01.096Z,0.60
2022-08-21T12:26:30.722Z,1.10
2022-08-21T12:29:13.734Z,0.60
2022-08-21T12:31:59.176Z,0.70
2022-08-21T12:34:37.896Z,0.80
2022-08-21T12:37:18.632Z,0.57
2022-08-21T12:39:49.682Z,0.95
2022-08-21T12:42:27.949Z,0.90
2022-08-21T12:45:04.039Z,0.98
2022-08-21T12:47:59.051Z,0.80
2022-08-21T12:50:49.203Z,0.88
2022-08-21T12:53:34.542Z,0.98
2022-08-21T12:56:09.894Z,0.80
2022-08-21T12:58:40.169Z,0.82
2022-08-21T13:01:14.238Z,1.08
2022-08-21T13:03:42.751Z,0.73
2022-08-21T13:06:17.229Z,0.98
2022-08-21T13:08:47.295Z,0.80
2022-08-21T13:11:17.875Z,0.70
2022-08-21T13:14:04.827Z,0.70
2022-08-21T13:16:32.889Z,0.85
2022-08-21T13:19:07.083Z,0.90
2022-08-21T13:21:36.467Z,0.70
2022-08-21T13:24:41.933Z,0.73
2022-08-21T13:27:30.974Z,0.57
2022-08-21T13:30:18.929Z,0.73
2022-08-21T13:32:49.771Z,1.05
2022-08-21T13:35:23.818Z,0.90
2022-08-21T13:37:52.736Z,0.90
2022-08-21T13:40:46.815Z,0.85
2022-08-21T13:43:19.907Z,1.00
2022-08-21T13:45:55.803Z,0.98
2022-08-21T13:48:26.072Z,1.10
2022-08-21T13:50:53.492Z,1.00
2022-08-21T13:53:45.769Z,1.13
2022-08-21T13:56:32.030Z,0.85
2022-08-21T13:59:00.897Z,0.90
2022-08-21T14:01:55.526Z,0.80
2022-08-21T14:04:36.297Z,1.38
2022-08-21T14:07:14.641Z,0.82
2022-08-21T14:09:43.897Z,1.05
2022-08-21T14:12:27.793Z,1.17
2022-08-21T14:14:57.185Z,1.00
2022-08-21T14:17:33.509Z,1.30
2022-08-21T14:20:01.614Z,1.00
2022-08-21T14:22:33.381Z,1.25
2022-08-21T14:25:02.362Z,1.00
2022-08-21T14:27:30.840Z,0.93
2022-08-21T14:30:09.433Z,1.13
2022-08-21T14:32:44.901Z,1.25
2022-08-21T14:35:13.648Z,0.88
2022-08-21T14:37:44.591Z,1.17
2022-08-21T14:40:13.527Z,1.13
2022-08-21T14:42:43.916Z,0.88
2022-08-21T14:45:31.965Z,0.98
2022-08-21T14:47:59.703Z,1.25
2022-08-21T14:50:28.120Z,1.40
2022-08-21T14:52:55.369Z,1.48
2022-08-21T14:55:22.207Z,1.58
2022-08-21T14:57:52.544Z,1.00
2022-08-21T15:00:23.829Z,1.13
2022-08-21T15:02:53.774Z,0.77
2022-08-21T15:05:26.022Z,0.70
2022-08-21T15:07:59.895Z,1.05
2022-08-21T15:10:26.665Z,0.80
2022-08-21T15:12:53.326Z,1.02
2022-08-21T15:15:20.146Z,0.90
2022-08-21T15:17:48.458Z,1.10
2022-08-21T15:20:15.582Z,1.10
2022-08-21T15:22:47.737Z,1.10
2022-08-21T15:25:15.361Z,1.20
2022-08-21T15:27:42.318Z,1.10
2022-08-21T15:30:09.719Z,1.02
2022-08-21T15:32:36.395Z,1.15
2022-08-21T15:35:03.561Z,1.10
2022-08-21T15:37:30.384Z,1.08
2022-08-21T15:39:57.304Z,1.02
2022-08-21T15:42:27.642Z,1.23
2022-08-21T15:44:56.027Z,0.90
2022-08-21T15:47:28.323Z,1.33
2022-08-21T15:49:55.048Z,1.25
2022-08-21T15:52:22.414Z,1.30
2022-08-21T15:54:50.203Z,1.10
2022-08-21T15:57:20.217Z,1.20
2022-08-21T15:59:50.409Z,1.20
2022-08-21T16:02:22.219Z,1.15
2022-08-21T16:04:48.959Z,0.98
2022-08-21T16:07:15.923Z,1.10
2022-08-21T16:09:42.792Z,1.20
2022-08-21T16:12:13.751Z,1.05
2022-08-21T16:14:40.630Z,0.80
2022-08-21T16:17:08.257Z,1.00
2022-08-21T16:19:37.184Z,1.05
2022-08-21T16:22:04.063Z,0.98
2022-08-21T16:24:30.906Z,1.08
2022-08-21T16:26:58.435Z,1.13
2022-08-21T16:29:31.673Z,1.50
2022-08-21T16:31:58.524Z,0.88
2022-08-21T16:34:25.574Z,0.80
2022-08-21T16:36:52.359Z,1.00
2022-08-21T16:39:19.107Z,0.88
2022-08-21T16:41:49.324Z,0.77
2022-08-21T16:44:16.678Z,0.80
2022-08-21T16:46:43.618Z,0.70
2022-08-21T16:49:10.414Z,0.80
2022-08-21T16:51:40.336Z,1.08
2022-08-21T16:54:07.086Z,1.00
2022-08-21T16:56:35.194Z,0.80
2022-08-21T16:59:05.093Z,1.13
2022-08-21T17:01:34.186Z,1.08
2022-08-21T17:04:01.434Z,1.10
2022-08-21T17:06:30.191Z,0.93
2022-08-21T17:08:58.718Z,1.20
2022-08-21T17:11:37.114Z,0.82
2022-08-21T17:14:16.152Z,0.90
2022-08-21T17:16:46.494Z,1.08
2022-08-21T17:19:13.654Z,1.17
2022-08-21T17:21:40.636Z,0.82
2022-08-21T17:24:07.510Z,1.00
2022-08-21T17:26:34.713Z,1.00
2022-08-21T17:29:01.481Z,1.20
2022-08-21T17:31:32.742Z,0.95
2022-08-21T17:34:00.019Z,0.90
2022-08-21T17:36:29.562Z,1.00
2022-08-21T17:38:57.484Z,0.70
2022-08-21T17:41:25.472Z,0.88
2022-08-21T17:43:53.224Z,1.02
2022-08-21T17:46:23.196Z,1.20
2022-08-21T17:48:50.536Z,0.82
2022-08-21T17:51:18.070Z,0.70
2022-08-21T17:53:45.170Z,1.38
2022-08-21T17:56:14.874Z,1.02
2022-08-21T17:58:47.027Z,1.10
2022-08-21T18:01:13.992Z,0.70
2022-08-21T18:03:41.392Z,1.08
2022-08-21T18:06:08.275Z,0.95
2022-08-21T18:08:35.165Z,1.35
2022-08-21T18:11:02.130Z,1.60
2022-08-21T18:13:34.001Z,1.10
2022-08-21T18:16:01.991Z,5.68
2022-08-21T18:18:36.599Z,5.40
2022-08-21T18:21:03.437Z,2.78
2022-08-21T18:23:44.435Z,2.13
2022-08-21T18:26:14.649Z,2.90
2022-08-21T18:28:42.610Z,2.33
2022-08-21T18:31:13.035Z,0.95
2022-08-21T18:33:43.650Z,1.20
2022-08-21T18:36:24.817Z,0.70
2022-08-21T18:38:52.463Z,1.02
2022-08-21T18:41:19.153Z,0.90
2022-08-21T18:43:46.059Z,1.30
2022-08-21T18:46:13.116Z,0.95
2022-08-21T18:48:41.356Z,0.88
2022-08-21T18:51:11.238Z,0.55
2022-08-21T18:53:38.247Z,0.93
2022-08-21T18:56:07.027Z,1.15
2022-08-21T18:58:58.122Z,1.10
2022-08-21T19:01:25.459Z,1.05
2022-08-21T19:03:52.560Z,1.20
2022-08-21T19:06:19.259Z,1.00
2022-08-21T19:08:46.007Z,1.08
2022-08-21T19:11:13.494Z,1.30
2022-08-21T19:13:40.569Z,0.98
2022-08-21T19:16:09.640Z,1.45
2022-08-21T19:18:40.635Z,1.35
2022-08-21T19:21:07.592Z,0.95
2022-08-21T19:23:35.230Z,1.30
2022-08-21T19:26:04.567Z,1.33
2022-08-21T19:28:32.893Z,1.85
2022-08-21T19:31:16.740Z,1.20
2022-08-21T19:33:57.593Z,1.50
2022-08-21T19:36:28.710Z,1.42
2022-08-21T19:38:55.496Z,1.55
2022-08-21T19:41:24.168Z,1.27
2022-08-21T19:43:55.179Z,1.48
2022-08-21T19:46:30.719Z,1.42
2022-08-21T19:48:58.766Z,2.08
2022-08-21T19:51:25.972Z,1.80
2022-08-21T19:53:55.788Z,1.83
2022-08-21T19:56:28.023Z,1.80
2022-08-21T19:58:55.843Z,2.10
2022-08-21T20:01:25.503Z,2.17
2022-08-21T20:03:54.051Z,1.63
2022-08-21T20:06:24.107Z,1.58
2022-08-21T20:08:52.773Z,1.90
2022-08-21T20:11:27.557Z,1.70
2022-08-21T20:13:58.845Z,1.83
2022-08-21T20:16:28.628Z,2.00
2022-08-21T20:18:55.803Z,2.17
2022-08-21T20:21:22.724Z,2.22
2022-08-21T20:23:49.828Z,1.92
2022-08-21T20:26:18.527Z,1.92
2022-08-21T20:28:45.690Z,2.38
2022-08-21T20:31:14.561Z,1.95
2022-08-21T20:33:41.986Z,2.10
2022-08-21T20:36:09.345Z,1.98
2022-08-21T20:38:36.571Z,2.40
2022-08-21T20:41:04.835Z,2.13
2022-08-21T20:43:43.017Z,1.67
2022-08-21T20:46:10.137Z,2.20
2022-08-21T20:48:49.048Z,2.20
2022-08-21T20:51:40.780Z,2.00
2022-08-21T20:54:29.798Z,2.47
2022-08-21T20:57:18.225Z,2.30
2022-08-21T21:00:14.592Z,2.15
2022-08-21T21:02:53.700Z,2.10
2022-08-21T21:05:25.691Z,2.22
2022-08-21T21:07:59.038Z,2.00
2022-08-21T21:10:29.353Z,1.85
2022-08-21T21:13:01.448Z,2.47
2022-08-21T21:15:34.410Z,2.35
2022-08-21T21:18:24.731Z,2.00
2022-08-21T21:21:20.235Z,2.15
2022-08-21T21:23:59.420Z,1.83
2022-08-21T21:26:35.352Z,2.10
2022-08-21T21:29:13.124Z,1.83
2022-08-21T21:31:41.380Z,2.38
2022-08-21T21:34:08.676Z,2.47
2022-08-21T21:36:56.174Z,2.42
2022-08-21T21:39:43.457Z,2.45
2022-08-21T21:42:19.127Z,2.30
2022-08-21T21:45:26.511Z,2.50
2022-08-21T21:48:14.812Z,2.20
2022-08-21T21:51:01.889Z,2.13
2022-08-21T21:53:51.570Z,2.80
2022-08-21T21:56:32.100Z,2.58
2022-08-21T21:59:23.354Z,2.20
2022-08-21T22:02:06.334Z,2.75
2022-08-21T22:04:51.900Z,1.92
2022-08-21T22:07:40.084Z,2.60
2022-08-21T22:10:30.633Z,2.50
2022-08-21T22:13:26.527Z,2.30
2022-08-21T22:15:54.391Z,2.13
2022-08-21T22:18:25.531Z,2.50
2022-08-21T22:21:24.081Z,2.40
2022-08-21T22:23:57.068Z,2.60
2022-08-21T22:26:39.541Z,2.45
2022-08-21T22:29:16.608Z,2.50
2022-08-21T22:31:44.515Z,3.03
2022-08-21T22:34:18.165Z,2.38
2022-08-21T22:36:59.404Z,2.50
2022-08-21T22:39:39.137Z,2.20
2022-08-21T22:42:13.613Z,2.05
2022-08-21T22:44:51.085Z,2.42
2022-08-21T22:47:24.719Z,2.38
2022-08-21T22:49:54.268Z,2.35
2022-08-21T22:52:36.142Z,2.30
2022-08-21T22:55:26.153Z,1.90
2022-08-21T22:58:11.670Z,1.75
2022-08-21T23:00:55.601Z,2.33
2022-08-21T23:03:52.373Z,2.08
2022-08-21T23:06:31.503Z,1.98
2022-08-21T23:09:00.469Z,1.85
2022-08-21T23:11:40.920Z,2.25
2022-08-21T23:14:14.273Z,1.80
2022-08-21T23:17:05.130Z,1.88
2022-08-21T23:19:58.255Z,2.40
2022-08-21T23:22:49.587Z,2.10
2022-08-21T23:25:42.419Z,2.03
2022-08-21T23:28:12.773Z,2.63
2022-08-21T23:30:57.140Z,1.58
2022-08-21T23:33:53.751Z,2.03
2022-08-21T23:36:51.287Z,2.10
2022-08-21T23:39:36.860Z,1.85
2022-08-21T23:42:35.784Z,1.80
2022-08-21T23:45:24.325Z,1.95
2022-08-21T23:48:24.114Z,2.10
2022-08-21T23:50:56.374Z,2.05
2022-08-21T23:53:23.087Z,2.00
2022-08-21T23:56:15.093Z,1.60
2022-08-21T23:58:47.838Z,2.25
